sensor_id;sensor_type;location;lat;lon;timestamp;P1;durP1;ratioP1;P2;durP2;ratioP2
66421;SDS011;53228;51.380;0.098;2022-08-07T00:02:11;4.13;;;2.53;;
66421;SDS011;53228;51.380;0.098;2022-08-07T00:04:59;3.80;;;2.83;;
66421;SDS011;53228;51.380;0.098;2022-08-07T00:07:30;6.18;;;2.60;;
66421;SDS011;53228;51.380;0.098;2022-08-07T00:10:07;5.63;;;2.75;;
66421;SDS011;53228;51.380;0.098;2022-08-07T00:12:56;3.28;;;2.50;;
66421;SDS011;53228;51.380;0.098;2022-08-07T00:15:28;4.78;;;2.60;;
66421;SDS011;53228;51.380;0.098;2022-08-07T00:18:13;5.20;;;2.42;;
66421;SDS011;53228;51.380;0.098;2022-08-07T00:20:50;4.15;;;2.60;;
66421;SDS011;53228;51.380;0.098;2022-08-07T00:23:27;5.88;;;2.80;;
66421;SDS011;53228;51.380;0.098;2022-08-07T00:25:57;6.15;;;2.92;;
66421;SDS011;53228;51.380;0.098;2022-08-07T00:28:44;6.60;;;2.75;;
66421;SDS011;53228;51.380;0.098;2022-08-07T00:31:22;2.95;;;2.25;;
66421;SDS011;53228;51.380;0.098;2022-08-07T00:34:04;4.88;;;2.30;;
66421;SDS011;53228;51.380;0.098;2022-08-07T00:36:36;4.50;;;2.50;;
66421;SDS011;53228;51.380;0.098;2022-08-07T00:39:10;3.30;;;2.13;;
66421;SDS011;53228;51.380;0.098;2022-08-07T00:41:50;3.90;;;2.65;;
66421;SDS011;53228;51.380;0.098;2022-08-07T00:44:28;7.70;;;2.40;;
66421;SDS011;53228;51.380;0.098;2022-08-07T00:46:59;5.05;;;2.50;;
66421;SDS011;53228;51.380;0.098;2022-08-07T00:49:28;5.40;;;2.95;;
66421;SDS011;53228;51.380;0.098;2022-08-07T00:52:16;6.13;;;2.40;;
66421;SDS011;53228;51.380;0.098;2022-08-07T00:54:47;5.30;;;2.58;;
66421;SDS011;53228;51.380;0.098;2022-08-07T00:57:23;3.95;;;2.42;;
66421;SDS011;53228;51.380;0.098;2022-08-07T00:59:52;4.80;;;2.22;;
66421;SDS011;53228;51.380;0.098;2022-08-07T01:02:21;4.28;;;2.22;;
66421;SDS011;53228;51.380;0.098;2022-08-07T01:04:55;5.25;;;2.35;;
66421;SDS011;53228;51.380;0.098;2022-08-07T01:07:26;6.03;;;2.13;;
66421;SDS011;53228;51.380;0.098;2022-08-07T01:09:57;4.63;;;2.00;;
66421;SDS011;53228;51.380;0.098;2022-08-07T01:12:39;3.88;;;2.20;;
66421;SDS011;53228;51.380;0.098;2022-08-07T01:15:21;3.28;;;2.17;;
66421;SDS011;53228;51.380;0.098;2022-08-07T01:18:11;5.00;;;2.45;;
66421;SDS011;53228;51.380;0.098;2022-08-07T01:20:49;4.07;;;2.70;;
66421;SDS011;53228;51.380;0.098;2022-08-07T01:23:29;3.22;;;2.08;;
66421;SDS011;53228;51.380;0.098;2022-08-07T01:26:10;6.53;;;2.42;;
66421;SDS011;53228;51.380;0.098;2022-08-07T01:28:44;4.18;;;2.53;;
66421;SDS011;53228;51.380;0.098;2022-08-07T01:31:20;4.28;;;2.22;;
66421;SDS011;53228;51.380;0.098;2022-08-07T01:34:08;6.63;;;2.72;;
66421;SDS011;53228;51.380;0.098;2022-08-07T01:36:40;5.43;;;2.55;;
66421;SDS011;53228;51.380;0.098;2022-08-07T01:39:14;5.50;;;2.80;;
66421;SDS011;53228;51.380;0.098;2022-08-07T01:41:49;3.90;;;2.30;;
66421;SDS011;53228;51.380;0.098;2022-08-07T01:44:37;5.50;;;2.72;;
66421;SDS011;53228;51.380;0.098;2022-08-07T01:47:06;2.75;;;2.40;;
66421;SDS011;53228;51.380;0.098;2022-08-07T01:49:54;3.92;;;2.03;;
66421;SDS011;53228;51.380;0.098;2022-08-07T01:52:25;8.25;;;2.30;;
66421;SDS011;53228;51.380;0.098;2022-08-07T01:54:55;4.80;;;2.20;;
66421;SDS011;53228;51.380;0.098;2022-08-07T01:57:34;4.82;;;2.30;;
66421;SDS011;53228;51.380;0.098;2022-08-07T02:00:26;4.43;;;2.45;;
66421;SDS011;53228;51.380;0.098;2022-08-07T02:02:58;4.80;;;2.30;;
66421;SDS011;53228;51.380;0.098;2022-08-07T02:05:53;6.10;;;2.75;;
66421;SDS011;53228;51.380;0.098;2022-08-07T02:08:32;8.02;;;2.75;;
66421;SDS011;53228;51.380;0.098;2022-08-07T02:11:09;5.07;;;2.80;;
66421;SDS011;53228;51.380;0.098;2022-08-07T02:13:59;4.68;;;2.55;;
66421;SDS011;53228;51.380;0.098;2022-08-07T02:16:32;7.68;;;2.72;;
66421;SDS011;53228;51.380;0.098;2022-08-07T02:19:05;4.20;;;2.58;;
66421;SDS011;53228;51.380;0.098;2022-08-07T02:21:55;8.50;;;3.53;;
66421;SDS011;53228;51.380;0.098;2022-08-07T02:24:26;7.70;;;3.08;;
66421;SDS011;53228;51.380;0.098;2022-08-07T02:26:57;4.05;;;2.90;;
66421;SDS011;53228;51.380;0.098;2022-08-07T02:29:29;4.70;;;3.50;;
66421;SDS011;53228;51.380;0.098;2022-08-07T02:32:03;5.28;;;3.40;;
66421;SDS011;53228;51.380;0.098;2022-08-07T02:34:37;6.22;;;2.95;;
66421;SDS011;53228;51.380;0.098;2022-08-07T02:37:18;7.35;;;3.13;;
66421;SDS011;53228;51.380;0.098;2022-08-07T02:42:36;5.28;;;3.00;;
66421;SDS011;53228;51.380;0.098;2022-08-07T02:45:06;5.63;;;2.67;;
66421;SDS011;53228;51.380;0.098;2022-08-07T02:47:56;3.60;;;2.90;;
66421;SDS011;53228;51.380;0.098;2022-08-07T02:50:29;4.40;;;2.78;;
66421;SDS011;53228;51.380;0.098;2022-08-07T02:53:03;6.22;;;2.92;;
66421;SDS011;53228;51.380;0.098;2022-08-07T02:55:38;4.20;;;2.53;;
66421;SDS011;53228;51.380;0.098;2022-08-07T02:58:32;5.53;;;2.70;;
66421;SDS011;53228;51.380;0.098;2022-08-07T03:01:06;3.65;;;2.60;;
66421;SDS011;53228;51.380;0.098;2022-08-07T03:03:46;5.18;;;2.50;;
66421;SDS011;53228;51.380;0.098;2022-08-07T03:06:21;3.08;;;2.45;;
66421;SDS011;53228;51.380;0.098;2022-08-07T03:09:01;3.15;;;2.50;;
66421;SDS011;53228;51.380;0.098;2022-08-07T03:11:38;4.43;;;2.38;;
66421;SDS011;53228;51.380;0.098;2022-08-07T03:14:25;4.80;;;2.75;;
66421;SDS011;53228;51.380;0.098;2022-08-07T03:16:55;5.45;;;2.85;;
66421;SDS011;53228;51.380;0.098;2022-08-07T03:19:23;4.70;;;2.70;;
66421;SDS011;53228;51.380;0.098;2022-08-07T03:21:57;5.57;;;2.53;;
66421;SDS011;53228;51.380;0.098;2022-08-07T03:24:25;4.47;;;2.33;;
66421;SDS011;53228;51.380;0.098;2022-08-07T03:26:59;4.10;;;2.78;;
66421;SDS011;53228;51.380;0.098;2022-08-07T03:29:44;3.60;;;2.38;;
66421;SDS011;53228;51.380;0.098;2022-08-07T03:32:25;5.65;;;2.58;;
66421;SDS011;53228;51.380;0.098;2022-08-07T03:34:58;2.70;;;2.30;;
66421;SDS011;53228;51.380;0.098;2022-08-07T03:37:49;3.90;;;2.63;;
66421;SDS011;53228;51.380;0.098;2022-08-07T03:40:25;5.75;;;2.92;;
66421;SDS011;53228;51.380;0.098;2022-08-07T03:43:04;5.25;;;2.42;;
66421;SDS011;53228;51.380;0.098;2022-08-07T03:45:44;6.97;;;2.70;;
66421;SDS011;53228;51.380;0.098;2022-08-07T03:48:16;7.30;;;3.08;;
66421;SDS011;53228;51.380;0.098;2022-08-07T03:50:44;5.35;;;2.47;;
66421;SDS011;53228;51.380;0.098;2022-08-07T03:53:27;2.90;;;2.40;;
66421;SDS011;53228;51.380;0.098;2022-08-07T03:56:20;6.63;;;2.88;;
66421;SDS011;53228;51.380;0.098;2022-08-07T03:59:03;5.10;;;2.63;;
66421;SDS011;53228;51.380;0.098;2022-08-07T04:01:43;6.00;;;2.97;;
66421;SDS011;53228;51.380;0.098;2022-08-07T04:04:15;5.18;;;2.58;;
66421;SDS011;53228;51.380;0.098;2022-08-07T04:06:48;6.00;;;3.05;;
66421;SDS011;53228;51.380;0.098;2022-08-07T04:09:20;3.92;;;2.45;;
66421;SDS011;53228;51.380;0.098;2022-08-07T04:11:53;6.15;;;3.33;;
66421;SDS011;53228;51.380;0.098;2022-08-07T04:14:43;7.53;;;3.85;;
66421;SDS011;53228;51.380;0.098;2022-08-07T04:17:17;6.47;;;3.72;;
66421;SDS011;53228;51.380;0.098;2022-08-07T04:19:53;6.00;;;4.43;;
66421;SDS011;53228;51.380;0.098;2022-08-07T04:22:24;5.65;;;3.65;;
66421;SDS011;53228;51.380;0.098;2022-08-07T04:24:57;8.50;;;3.85;;
66421;SDS011;53228;51.380;0.098;2022-08-07T04:27:29;9.27;;;4.60;;
66421;SDS011;53228;51.380;0.098;2022-08-07T04:30:06;7.13;;;4.13;;
66421;SDS011;53228;51.380;0.098;2022-08-07T04:32:58;6.45;;;4.10;;
66421;SDS011;53228;51.380;0.098;2022-08-07T04:35:29;7.63;;;3.95;;
66421;SDS011;53228;51.380;0.098;2022-08-07T04:38:07;6.30;;;3.10;;
66421;SDS011;53228;51.380;0.098;2022-08-07T04:40:44;7.95;;;3.25;;
66421;SDS011;53228;51.380;0.098;2022-08-07T04:43:43;7.00;;;2.95;;
66421;SDS011;53228;51.380;0.098;2022-08-07T04:46:41;5.28;;;2.85;;
66421;SDS011;53228;51.380;0.098;2022-08-07T04:52:34;5.78;;;2.28;;
66421;SDS011;53228;51.380;0.098;2022-08-07T04:55:25;4.15;;;2.28;;
66421;SDS011;53228;51.380;0.098;2022-08-07T04:58:23;5.28;;;2.45;;
66421;SDS011;53228;51.380;0.098;2022-08-07T05:01:23;4.15;;;2.30;;
66421;SDS011;53228;51.380;0.098;2022-08-07T05:04:15;2.88;;;2.17;;
66421;SDS011;53228;51.380;0.098;2022-08-07T05:07:06;4.40;;;2.60;;
66421;SDS011;53228;51.380;0.098;2022-08-07T05:12:43;4.32;;;2.17;;
66421;SDS011;53228;51.380;0.098;2022-08-07T05:15:25;2.47;;;1.95;;
66421;SDS011;53228;51.380;0.098;2022-08-07T05:18:01;3.97;;;2.08;;
66421;SDS011;53228;51.380;0.098;2022-08-07T05:20:40;3.58;;;2.05;;
66421;SDS011;53228;51.380;0.098;2022-08-07T05:23:13;3.10;;;2.20;;
66421;SDS011;53228;51.380;0.098;2022-08-07T05:25:49;4.47;;;1.67;;
66421;SDS011;53228;51.380;0.098;2022-08-07T05:28:38;3.67;;;1.88;;
66421;SDS011;53228;51.380;0.098;2022-08-07T05:31:15;4.22;;;1.60;;
66421;SDS011;53228;51.380;0.098;2022-08-07T05:33:45;3.63;;;1.60;;
66421;SDS011;53228;51.380;0.098;2022-08-07T05:36:33;3.92;;;2.42;;
66421;SDS011;53228;51.380;0.098;2022-08-07T05:39:10;3.97;;;2.17;;
66421;SDS011;53228;51.380;0.098;2022-08-07T05:42:01;2.08;;;1.77;;
66421;SDS011;53228;51.380;0.098;2022-08-07T05:44:37;5.40;;;1.98;;
66421;SDS011;53228;51.380;0.098;2022-08-07T05:47:19;6.05;;;2.13;;
66421;SDS011;53228;51.380;0.098;2022-08-07T05:50:07;4.72;;;1.77;;
66421;SDS011;53228;51.380;0.098;2022-08-07T05:52:36;5.72;;;1.90;;
66421;SDS011;53228;51.380;0.098;2022-08-07T05:55:05;3.95;;;1.85;;
66421;SDS011;53228;51.380;0.098;2022-08-07T05:57:40;3.88;;;1.90;;
66421;SDS011;53228;51.380;0.098;2022-08-07T06:00:12;4.22;;;1.75;;
66421;SDS011;53228;51.380;0.098;2022-08-07T06:02:49;2.45;;;1.95;;
66421;SDS011;53228;51.380;0.098;2022-08-07T06:05:20;4.05;;;2.15;;
66421;SDS011;53228;51.380;0.098;2022-08-07T06:07:58;4.25;;;2.00;;
66421;SDS011;53228;51.380;0.098;2022-08-07T06:10:42;3.70;;;1.90;;
66421;SDS011;53228;51.380;0.098;2022-08-07T06:13:11;3.45;;;2.00;;
66421;SDS011;53228;51.380;0.098;2022-08-07T06:15:42;5.50;;;1.83;;
66421;SDS011;53228;51.380;0.098;2022-08-07T06:18:22;3.60;;;1.58;;
66421;SDS011;53228;51.380;0.098;2022-08-07T06:20:54;4.93;;;1.85;;
66421;SDS011;53228;51.380;0.098;2022-08-07T06:23:43;2.78;;;1.70;;
66421;SDS011;53228;51.380;0.098;2022-08-07T06:26:31;6.75;;;1.80;;
66421;SDS011;53228;51.380;0.098;2022-08-07T06:28:59;2.65;;;1.90;;
66421;SDS011;53228;51.380;0.098;2022-08-07T06:31:32;3.60;;;1.90;;
66421;SDS011;53228;51.380;0.098;2022-08-07T06:34:21;2.55;;;1.98;;
66421;SDS011;53228;51.380;0.098;2022-08-07T06:36:57;3.38;;;1.85;;
66421;SDS011;53228;51.380;0.098;2022-08-07T06:39:34;3.65;;;1.80;;
66421;SDS011;53228;51.380;0.098;2022-08-07T06:42:27;4.18;;;1.85;;
66421;SDS011;53228;51.380;0.098;2022-08-07T06:45:25;2.40;;;1.73;;
66421;SDS011;53228;51.380;0.098;2022-08-07T06:47:57;3.05;;;1.48;;
66421;SDS011;53228;51.380;0.098;2022-08-07T06:50:46;3.95;;;2.10;;
66421;SDS011;53228;51.380;0.098;2022-08-07T06:53:20;3.55;;;2.13;;
66421;SDS011;53228;51.380;0.098;2022-08-07T06:56:14;3.47;;;1.65;;
66421;SDS011;53228;51.380;0.098;2022-08-07T06:59:20;4.40;;;1.90;;
66421;SDS011;53228;51.380;0.098;2022-08-07T07:05:11;5.13;;;2.78;;
66421;SDS011;53228;51.380;0.098;2022-08-07T07:07:59;4.55;;;2.60;;
66421;SDS011;53228;51.380;0.098;2022-08-07T07:10:34;5.25;;;2.70;;
66421;SDS011;53228;51.380;0.098;2022-08-07T07:13:03;6.00;;;3.15;;
66421;SDS011;53228;51.380;0.098;2022-08-07T07:16:17;5.10;;;3.38;;
66421;SDS011;53228;51.380;0.098;2022-08-07T07:18:53;6.28;;;3.63;;
66421;SDS011;53228;51.380;0.098;2022-08-07T07:21:25;7.45;;;3.70;;
66421;SDS011;53228;51.380;0.098;2022-08-07T07:24:16;6.07;;;3.70;;
66421;SDS011;53228;51.380;0.098;2022-08-07T07:26:43;7.60;;;4.50;;
66421;SDS011;53228;51.380;0.098;2022-08-07T07:29:20;8.70;;;4.05;;
66421;SDS011;53228;51.380;0.098;2022-08-07T07:32:12;5.25;;;3.33;;
66421;SDS011;53228;51.380;0.098;2022-08-07T07:34:44;6.97;;;3.10;;
66421;SDS011;53228;51.380;0.098;2022-08-07T07:37:14;6.28;;;3.35;;
66421;SDS011;53228;51.380;0.098;2022-08-07T07:40:05;3.88;;;2.50;;
66421;SDS011;53228;51.380;0.098;2022-08-07T07:42:42;4.72;;;3.10;;
66421;SDS011;53228;51.380;0.098;2022-08-07T07:45:17;4.22;;;2.65;;
66421;SDS011;53228;51.380;0.098;2022-08-07T07:48:08;5.75;;;2.40;;
66421;SDS011;53228;51.380;0.098;2022-08-07T07:50:58;8.38;;;3.22;;
66421;SDS011;53228;51.380;0.098;2022-08-07T07:53:38;4.30;;;2.75;;
66421;SDS011;53228;51.380;0.098;2022-08-07T07:56:18;5.32;;;2.72;;
66421;SDS011;53228;51.380;0.098;2022-08-07T07:59:03;4.28;;;2.35;;
66421;SDS011;53228;51.380;0.098;2022-08-07T08:01:32;4.45;;;2.50;;
66421;SDS011;53228;51.380;0.098;2022-08-07T08:04:21;4.05;;;2.30;;
66421;SDS011;53228;51.380;0.098;2022-08-07T08:06:53;3.92;;;2.55;;
66421;SDS011;53228;51.380;0.098;2022-08-07T08:09:23;5.70;;;3.03;;
66421;SDS011;53228;51.380;0.098;2022-08-07T08:11:55;4.07;;;2.60;;
66421;SDS011;53228;51.380;0.098;2022-08-07T08:14:31;4.03;;;2.70;;
66421;SDS011;53228;51.380;0.098;2022-08-07T08:17:00;6.85;;;3.10;;
66421;SDS011;53228;51.380;0.098;2022-08-07T08:19:55;4.13;;;2.75;;
66421;SDS011;53228;51.380;0.098;2022-08-07T08:22:47;4.10;;;3.67;;
66421;SDS011;53228;51.380;0.098;2022-08-07T08:25:37;4.75;;;3.53;;
66421;SDS011;53228;51.380;0.098;2022-08-07T08:28:32;5.45;;;3.72;;
66421;SDS011;53228;51.380;0.098;2022-08-07T08:31:19;9.38;;;3.67;;
66421;SDS011;53228;51.380;0.098;2022-08-07T08:34:10;4.38;;;3.42;;
66421;SDS011;53228;51.380;0.098;2022-08-07T08:36:55;7.18;;;3.42;;
66421;SDS011;53228;51.380;0.098;2022-08-07T08:39:25;4.72;;;3.30;;
66421;SDS011;53228;51.380;0.098;2022-08-07T08:45:11;5.00;;;3.85;;
66421;SDS011;53228;51.380;0.098;2022-08-07T08:48:34;7.05;;;3.60;;
66421;SDS011;53228;51.380;0.098;2022-08-07T08:51:06;8.93;;;4.32;;
66421;SDS011;53228;51.380;0.098;2022-08-07T08:56:56;6.70;;;3.47;;
66421;SDS011;53228;51.380;0.098;2022-08-07T08:59:33;4.30;;;3.60;;
66421;SDS011;53228;51.380;0.098;2022-08-07T09:08:14;7.18;;;3.70;;
66421;SDS011;53228;51.380;0.098;2022-08-07T09:11:10;5.78;;;3.72;;
66421;SDS011;53228;51.380;0.098;2022-08-07T09:14:23;5.13;;;3.50;;
66421;SDS011;53228;51.380;0.098;2022-08-07T09:16:57;6.63;;;4.25;;
66421;SDS011;53228;51.380;0.098;2022-08-07T09:25:25;5.35;;;4.07;;
66421;SDS011;53228;51.380;0.098;2022-08-07T09:28:06;7.55;;;4.35;;
66421;SDS011;53228;51.380;0.098;2022-08-07T09:31:02;4.75;;;3.60;;
66421;SDS011;53228;51.380;0.098;2022-08-07T09:34:14;6.72;;;4.38;;
66421;SDS011;53228;51.380;0.098;2022-08-07T09:54:43;6.53;;;3.88;;
66421;SDS011;53228;51.380;0.098;2022-08-07T10:11:42;5.03;;;3.33;;
66421;SDS011;53228;51.380;0.098;2022-08-07T10:27:07;7.20;;;3.10;;
66421;SDS011;53228;51.380;0.098;2022-08-07T10:30:13;6.68;;;3.40;;
66421;SDS011;53228;51.380;0.098;2022-08-07T10:36:37;6.55;;;3.13;;
66421;SDS011;53228;51.380;0.098;2022-08-07T10:39:18;5.95;;;2.95;;
66421;SDS011;53228;51.380;0.098;2022-08-07T10:54:34;7.15;;;3.40;;
66421;SDS011;53228;51.380;0.098;2022-08-07T10:57:36;5.68;;;3.15;;
66421;SDS011;53228;51.380;0.098;2022-08-07T11:00:22;4.03;;;3.13;;
66421;SDS011;53228;51.380;0.098;2022-08-07T11:03:22;9.45;;;3.80;;
66421;SDS011;53228;51.380;0.098;2022-08-07T11:06:35;4.65;;;3.45;;
66421;SDS011;53228;51.380;0.098;2022-08-07T11:09:38;5.40;;;3.22;;
66421;SDS011;53228;51.380;0.098;2022-08-07T11:12:35;4.15;;;2.70;;
66421;SDS011;53228;51.380;0.098;2022-08-07T11:15:13;5.70;;;3.03;;
66421;SDS011;53228;51.380;0.098;2022-08-07T11:20:34;4.97;;;3.30;;
66421;SDS011;53228;51.380;0.098;2022-08-07T11:23:22;5.28;;;3.30;;
66421;SDS011;53228;51.380;0.098;2022-08-07T11:26:13;4.97;;;3.22;;
66421;SDS011;53228;51.380;0.098;2022-08-07T11:32:14;3.83;;;3.40;;
66421;SDS011;53228;51.380;0.098;2022-08-07T11:35:10;6.18;;;3.67;;
66421;SDS011;53228;51.380;0.098;2022-08-07T11:46:28;5.10;;;3.15;;
66421;SDS011;53228;51.380;0.098;2022-08-07T11:55:09;5.05;;;2.92;;
66421;SDS011;53228;51.380;0.098;2022-08-07T12:06:27;5.55;;;3.08;;
66421;SDS011;53228;51.380;0.098;2022-08-07T12:09:34;5.55;;;3.40;;
66421;SDS011;53228;51.380;0.098;2022-08-07T12:12:25;4.55;;;3.08;;
66421;SDS011;53228;51.380;0.098;2022-08-07T12:15:04;5.18;;;3.13;;
66421;SDS011;53228;51.380;0.098;2022-08-07T12:21:13;5.10;;;3.00;;
66421;SDS011;53228;51.380;0.098;2022-08-07T12:27:08;6.85;;;2.70;;
66421;SDS011;53228;51.380;0.098;2022-08-07T12:30:27;3.67;;;2.75;;
66421;SDS011;53228;51.380;0.098;2022-08-07T12:35:57;5.13;;;3.03;;
66421;SDS011;53228;51.380;0.098;2022-08-07T12:38:28;8.40;;;3.65;;
66421;SDS011;53228;51.380;0.098;2022-08-07T12:41:09;7.45;;;3.25;;
66421;SDS011;53228;51.380;0.098;2022-08-07T12:43:39;6.32;;;3.10;;
66421;SDS011;53228;51.380;0.098;2022-08-07T12:52:12;7.40;;;3.00;;
66421;SDS011;53228;51.380;0.098;2022-08-07T12:54:59;4.63;;;3.35;;
66421;SDS011;53228;51.380;0.098;2022-08-07T12:57:36;5.80;;;3.20;;
66421;SDS011;53228;51.380;0.098;2022-08-07T13:00:27;4.20;;;2.95;;
66421;SDS011;53228;51.380;0.098;2022-08-07T13:03:30;6.07;;;3.90;;
66421;SDS011;53228;51.380;0.098;2022-08-07T13:12:36;3.85;;;2.50;;
66421;SDS011;53228;51.380;0.098;2022-08-07T13:21:25;5.43;;;3.20;;
66421;SDS011;53228;51.380;0.098;2022-08-07T13:24:25;5.85;;;3.08;;
66421;SDS011;53228;51.380;0.098;2022-08-07T13:27:17;3.85;;;2.92;;
66421;SDS011;53228;51.380;0.098;2022-08-07T13:30:10;4.45;;;2.70;;
66421;SDS011;53228;51.380;0.098;2022-08-07T13:33:20;6.18;;;3.30;;
66421;SDS011;53228;51.380;0.098;2022-08-07T13:36:20;3.78;;;2.90;;
66421;SDS011;53228;51.380;0.098;2022-08-07T13:41:54;5.85;;;2.70;;
66421;SDS011;53228;51.380;0.098;2022-08-07T13:44:24;3.55;;;2.15;;
66421;SDS011;53228;51.380;0.098;2022-08-07T13:47:04;3.33;;;2.38;;
66421;SDS011;53228;51.380;0.098;2022-08-07T13:49:41;3.35;;;2.63;;
66421;SDS011;53228;51.380;0.098;2022-08-07T13:52:32;2.67;;;2.15;;
66421;SDS011;53228;51.380;0.098;2022-08-07T13:55:11;3.38;;;2.17;;
66421;SDS011;53228;51.380;0.098;2022-08-07T13:58:03;4.25;;;2.40;;
66421;SDS011;53228;51.380;0.098;2022-08-07T14:00:58;3.13;;;2.53;;
66421;SDS011;53228;51.380;0.098;2022-08-07T14:03:35;3.70;;;2.60;;
66421;SDS011;53228;51.380;0.098;2022-08-07T14:06:30;2.28;;;2.08;;
66421;SDS011;53228;51.380;0.098;2022-08-07T14:09:00;4.07;;;2.40;;
66421;SDS011;53228;51.380;0.098;2022-08-07T14:11:32;3.67;;;2.40;;
66421;SDS011;53228;51.380;0.098;2022-08-07T14:14:28;3.78;;;2.20;;
66421;SDS011;53228;51.380;0.098;2022-08-07T14:17:00;3.13;;;2.22;;
66421;SDS011;53228;51.380;0.098;2022-08-07T14:19:51;3.67;;;1.92;;
66421;SDS011;53228;51.380;0.098;2022-08-07T14:22:51;3.17;;;2.03;;
66421;SDS011;53228;51.380;0.098;2022-08-07T14:25:28;2.20;;;1.90;;
66421;SDS011;53228;51.380;0.098;2022-08-07T14:28:13;3.50;;;2.08;;
66421;SDS011;53228;51.380;0.098;2022-08-07T14:30:46;2.92;;;1.95;;
66421;SDS011;53228;51.380;0.098;2022-08-07T14:33:18;5.13;;;1.90;;
66421;SDS011;53228;51.380;0.098;2022-08-07T14:35:53;3.05;;;2.10;;
66421;SDS011;53228;51.380;0.098;2022-08-07T14:38:25;2.80;;;2.22;;
66421;SDS011;53228;51.380;0.098;2022-08-07T14:41:00;2.13;;;1.95;;
66421;SDS011;53228;51.380;0.098;2022-08-07T14:43:32;4.68;;;2.10;;
66421;SDS011;53228;51.380;0.098;2022-08-07T14:46:24;3.97;;;2.13;;
66421;SDS011;53228;51.380;0.098;2022-08-07T14:48:59;2.38;;;1.70;;
66421;SDS011;53228;51.380;0.098;2022-08-07T14:51:48;3.03;;;1.83;;
66421;SDS011;53228;51.380;0.098;2022-08-07T14:54:37;4.30;;;2.00;;
66421;SDS011;53228;51.380;0.098;2022-08-07T14:57:26;1.90;;;1.80;;
66421;SDS011;53228;51.380;0.098;2022-08-07T15:00:17;2.88;;;1.80;;
66421;SDS011;53228;51.380;0.098;2022-08-07T15:02:57;2.00;;;1.58;;
66421;SDS011;53228;51.380;0.098;2022-08-07T15:05:47;1.67;;;1.30;;
66421;SDS011;53228;51.380;0.098;2022-08-07T15:08:31;1.77;;;1.65;;
66421;SDS011;53228;51.380;0.098;2022-08-07T15:11:23;2.90;;;1.73;;
66421;SDS011;53228;51.380;0.098;2022-08-07T15:14:16;4.13;;;2.05;;
66421;SDS011;53228;51.380;0.098;2022-08-07T15:16:58;2.75;;;1.90;;
66421;SDS011;53228;51.380;0.098;2022-08-07T15:19:32;2.78;;;1.75;;
66421;SDS011;53228;51.380;0.098;2022-08-07T15:22:27;2.05;;;1.73;;
66421;SDS011;53228;51.380;0.098;2022-08-07T15:25:06;3.67;;;1.90;;
66421;SDS011;53228;51.380;0.098;2022-08-07T15:27:47;2.70;;;1.70;;
66421;SDS011;53228;51.380;0.098;2022-08-07T15:30:38;3.15;;;1.70;;
66421;SDS011;53228;51.380;0.098;2022-08-07T15:36:02;2.47;;;1.33;;
66421;SDS011;53228;51.380;0.098;2022-08-07T15:38:35;4.43;;;1.70;;
66421;SDS011;53228;51.380;0.098;2022-08-07T15:41:25;2.42;;;1.50;;
66421;SDS011;53228;51.380;0.098;2022-08-07T15:44:16;2.75;;;1.60;;
66421;SDS011;53228;51.380;0.098;2022-08-07T15:46:46;2.47;;;1.48;;
66421;SDS011;53228;51.380;0.098;2022-08-07T15:49:30;2.38;;;2.08;;
66421;SDS011;53228;51.380;0.098;2022-08-07T15:52:23;2.25;;;1.83;;
66421;SDS011;53228;51.380;0.098;2022-08-07T15:54:58;2.33;;;1.58;;
66421;SDS011;53228;51.380;0.098;2022-08-07T15:57:31;1.45;;;1.35;;
66421;SDS011;53228;51.380;0.098;2022-08-07T16:00:15;2.03;;;1.58;;
66421;SDS011;53228;51.380;0.098;2022-08-07T16:03:04;5.60;;;1.85;;
66421;SDS011;53228;51.380;0.098;2022-08-07T16:05:56;3.60;;;1.48;;
66421;SDS011;53228;51.380;0.098;2022-08-07T16:08:26;1.52;;;1.13;;
66421;SDS011;53228;51.380;0.098;2022-08-07T16:11:05;1.65;;;1.50;;
66421;SDS011;53228;51.380;0.098;2022-08-07T16:13:58;1.48;;;1.38;;
66421;SDS011;53228;51.380;0.098;2022-08-07T16:17:06;6.20;;;1.45;;
66421;SDS011;53228;51.380;0.098;2022-08-07T16:23:17;1.65;;;1.55;;
66421;SDS011;53228;51.380;0.098;2022-08-07T16:26:18;1.98;;;1.70;;
66421;SDS011;53228;51.380;0.098;2022-08-07T16:29:02;8.13;;;5.25;;
66421;SDS011;53228;51.380;0.098;2022-08-07T16:32:00;3.78;;;2.75;;
66421;SDS011;53228;51.380;0.098;2022-08-07T16:50:30;2.78;;;1.27;;
66421;SDS011;53228;51.380;0.098;2022-08-07T16:56:48;1.92;;;1.48;;
66421;SDS011;53228;51.380;0.098;2022-08-07T16:59:51;1.92;;;1.55;;
66421;SDS011;53228;51.380;0.098;2022-08-07T17:08:49;1.23;;;0.90;;
66421;SDS011;53228;51.380;0.098;2022-08-07T17:14:51;2.08;;;1.10;;
66421;SDS011;53228;51.380;0.098;2022-08-07T17:17:32;0.90;;;0.90;;
66421;SDS011;53228;51.380;0.098;2022-08-07T17:28:22;4.65;;;1.40;;
66421;SDS011;53228;51.380;0.098;2022-08-07T17:31:02;3.30;;;1.35;;
66421;SDS011;53228;51.380;0.098;2022-08-07T17:33:50;1.23;;;0.90;;
66421;SDS011;53228;51.380;0.098;2022-08-07T17:36:48;1.55;;;1.10;;
66421;SDS011;53228;51.380;0.098;2022-08-07T17:39:51;4.05;;;0.98;;
66421;SDS011;53228;51.380;0.098;2022-08-07T17:45:40;1.05;;;0.90;;
66421;SDS011;53228;51.380;0.098;2022-08-07T17:50:58;1.67;;;0.80;;
66421;SDS011;53228;51.380;0.098;2022-08-07T17:56:40;2.67;;;0.95;;
66421;SDS011;53228;51.380;0.098;2022-08-07T17:59:22;0.98;;;0.88;;
66421;SDS011;53228;51.380;0.098;2022-08-07T18:02:16;2.13;;;0.77;;
66421;SDS011;53228;51.380;0.098;2022-08-07T18:05:57;2.55;;;0.82;;
66421;SDS011;53228;51.380;0.098;2022-08-07T18:11:13;1.70;;;0.80;;
66421;SDS011;53228;51.380;0.098;2022-08-07T18:18:15;1.50;;;0.90;;
66421;SDS011;53228;51.380;0.098;2022-08-07T18:20:59;1.27;;;0.90;;
66421;SDS011;53228;51.380;0.098;2022-08-07T18:24:04;2.50;;;0.90;;
66421;SDS011;53228;51.380;0.098;2022-08-07T18:46:39;1.02;;;0.82;;
66421;SDS011;53228;51.380;0.098;2022-08-07T18:49:26;2.65;;;0.80;;
66421;SDS011;53228;51.380;0.098;2022-08-07T18:58:28;1.90;;;0.90;;
66421;SDS011;53228;51.380;0.098;2022-08-07T19:01:02;1.77;;;0.93;;
66421;SDS011;53228;51.380;0.098;2022-08-07T19:04:12;5.18;;;0.82;;
66421;SDS011;53228;51.380;0.098;2022-08-07T19:07:04;1.80;;;0.90;;
66421;SDS011;53228;51.380;0.098;2022-08-07T19:16:04;2.13;;;0.85;;
66421;SDS011;53228;51.380;0.098;2022-08-07T19:22:15;3.33;;;1.13;;
66421;SDS011;53228;51.380;0.098;2022-08-07T19:24:57;1.10;;;1.00;;
66421;SDS011;53228;51.380;0.098;2022-08-07T19:27:32;3.08;;;1.15;;
66421;SDS011;53228;51.380;0.098;2022-08-07T19:30:22;1.80;;;1.17;;
66421;SDS011;53228;51.380;0.098;2022-08-07T19:33:17;1.38;;;1.25;;
66421;SDS011;53228;51.380;0.098;2022-08-07T19:36:01;2.35;;;1.25;;
66421;SDS011;53228;51.380;0.098;2022-08-07T19:38:31;2.00;;;1.40;;
66421;SDS011;53228;51.380;0.098;2022-08-07T19:41:22;3.05;;;1.63;;
66421;SDS011;53228;51.380;0.098;2022-08-07T19:44:34;2.70;;;1.40;;
66421;SDS011;53228;51.380;0.098;2022-08-07T19:47:09;2.25;;;1.20;;
66421;SDS011;53228;51.380;0.098;2022-08-07T19:49:43;4.45;;;1.25;;
66421;SDS011;53228;51.380;0.098;2022-08-07T19:52:29;1.95;;;1.20;;
66421;SDS011;53228;51.380;0.098;2022-08-07T19:54:58;2.90;;;1.33;;
66421;SDS011;53228;51.380;0.098;2022-08-07T19:57:38;1.45;;;1.35;;
66421;SDS011;53228;51.380;0.098;2022-08-07T20:00:28;3.17;;;1.30;;
66421;SDS011;53228;51.380;0.098;2022-08-07T20:03:01;3.38;;;1.30;;
66421;SDS011;53228;51.380;0.098;2022-08-07T20:05:54;1.92;;;1.30;;
66421;SDS011;53228;51.380;0.098;2022-08-07T20:08:34;2.42;;;1.23;;
66421;SDS011;53228;51.380;0.098;2022-08-07T20:11:16;4.68;;;1.65;;
66421;SDS011;53228;51.380;0.098;2022-08-07T20:14:07;2.63;;;1.17;;
66421;SDS011;53228;51.380;0.098;2022-08-07T20:16:47;6.63;;;1.92;;
66421;SDS011;53228;51.380;0.098;2022-08-07T20:19:21;2.78;;;1.30;;
66421;SDS011;53228;51.380;0.098;2022-08-07T20:22:14;4.80;;;1.67;;
66421;SDS011;53228;51.380;0.098;2022-08-07T20:24:56;3.13;;;1.70;;
66421;SDS011;53228;51.380;0.098;2022-08-07T20:27:32;2.55;;;1.75;;